Overview Statistics Trail Chart Weather Telemetry Raw packets
 

This is the latest recevied weather packets stored in our database for station/object PP5CFL-13. If no packets are shown the sender has not sent any weather packets the latest 10 day(s).

<< 108 109 110 111 112 113 114 >>
Time Temp. Humidity Pressure Rain* Wind** Luminosity Snow
1787845053 20.56° C 97% 1017.1 hPa - - - -
1787844753 20.56° C 97% 1017.2 hPa - - - -
1787844453 20.56° C 97% 1017.4 hPa - - - -
1787844153 20.56° C 97% 1017.5 hPa - - - -
1787843853 20.56° C 97% 1017.6 hPa - - - -
1787843553 20.56° C 97% 1017.8 hPa - - - -
1787843253 20.56° C 97% 1017.9 hPa - - - -
1787842953 20.56° C 97% 1018 hPa - - - -
1787842653 20.56° C 97% 1018.1 hPa - - - -
1787842353 20.56° C 96% 1018 hPa - - - -
1787842053 20.56° C 95% 1018.2 hPa - - - -
1787841753 21.67° C 89% 1018.1 hPa - - - -
1787841453 21.67° C 90% 1018.4 hPa - - - -
1787841153 22.22° C 89% 1018.3 hPa - - - -
1787840853 21.11° C 94% 1018.6 hPa - - - -
1787840553 21.67° C 93% 1018.7 hPa - - - -
1787840253 21.11° C 95% 1018.7 hPa - - - -
1787839953 21.11° C 96% 1018.8 hPa - - - -
1787839653 21.67° C 92% 1018.9 hPa - - - -
1787839353 21.67° C 93% 1018.9 hPa - - - -
1787839053 21.67° C 94% 1018.9 hPa - - - -
1787838753 21.11° C 95% 1018.9 hPa - - - -
1787838453 21.11° C 99% 1019 hPa - - - -
1787838153 20.56° C 10% - - - - -
1787837853 20.56° C 10% - - - - -

* Rain since midnight (hover to see other rain measurements)
** Current wind speed in m/s (hover to see current wind gust speed)